KGTF/GTF METAR and TAF weather

Enter ICAO airport designator
Station Type Date Time Source
KGTF METAR 2021/04/18 00:53 UTC NOAA

KGTF 180053Z 35003KT 10SM CLR 18/M10 A3012 RMK AO2 SLP214 T01831100 $


Station Type Date Time Source
KGTF Decoded METAR 2021/04/18 00:53 UTC NOAA

GREAT FALLS INTERNATIONAL, MT, United States (KGTF) 47-28N 111-23W 1119M
Apr 17, 2021 - 08:53 PM EDT / 2021.04.18 0053 UTC
Wind: from the N (350 degrees) at 3 MPH (3 KT):0
Visibility: 10 mile(s):0
Sky conditions: clear
Temperature: 64.9 F (18.3 C)
Dew Point: 14.0 F (-10.0 C)
Relative Humidity: 13%
Pressure (altimeter): 30.12 in. Hg (1019 hPa)
ob: KGTF 180053Z 35003KT 10SM CLR 18/M10 A3012 RMK AO2 SLP214 T01831100
cycle: 1

Station Type Date Time Source
KGTF TAF 2021/04/17 18:30 UTC NOAA

TAF KGTF 171729Z 1718/1818 23010KT P6SM SKC
FM172100 28010KT P6SM SCT200
FM180300 25007KT P6SM BKN180
FM181500 34011KT P6SM BKN035 OVC050 PROB30 1815/1818 3SM -RA OVC025

Example: see airport list